sensor_id;sensor_type;location;lat;lon;timestamp;P1;durP1;ratioP1;P2;durP2;ratioP2
62543;SDS011;48597;49.030;1.822;2023-04-03T00:01:02;1.92;;;1.83;;
62543;SDS011;48597;49.030;1.822;2023-04-03T00:03:28;2.10;;;1.92;;
62543;SDS011;48597;49.030;1.822;2023-04-03T00:05:54;1.95;;;1.80;;
62543;SDS011;48597;49.030;1.822;2023-04-03T00:08:19;2.10;;;1.90;;
62543;SDS011;48597;49.030;1.822;2023-04-03T00:10:45;1.90;;;1.80;;
62543;SDS011;48597;49.030;1.822;2023-04-03T00:13:11;2.08;;;1.80;;
62543;SDS011;48597;49.030;1.822;2023-04-03T00:15:37;2.00;;;1.80;;
62543;SDS011;48597;49.030;1.822;2023-04-03T00:18:03;2.20;;;2.00;;
62543;SDS011;48597;49.030;1.822;2023-04-03T00:20:29;1.80;;;1.70;;
62543;SDS011;48597;49.030;1.822;2023-04-03T00:22:54;1.70;;;1.60;;
62543;SDS011;48597;49.030;1.822;2023-04-03T00:25:20;2.10;;;1.88;;
62543;SDS011;48597;49.030;1.822;2023-04-03T00:27:46;2.00;;;1.80;;
62543;SDS011;48597;49.030;1.822;2023-04-03T00:30:13;1.90;;;1.80;;
62543;SDS011;48597;49.030;1.822;2023-04-03T00:32:40;1.80;;;1.70;;
62543;SDS011;48597;49.030;1.822;2023-04-03T00:35:06;2.35;;;2.00;;
62543;SDS011;48597;49.030;1.822;2023-04-03T00:37:32;2.17;;;2.00;;
62543;SDS011;48597;49.030;1.822;2023-04-03T00:39:58;2.15;;;1.90;;
62543;SDS011;48597;49.030;1.822;2023-04-03T00:42:23;1.95;;;1.80;;
62543;SDS011;48597;49.030;1.822;2023-04-03T00:47:17;2.00;;;1.90;;
62543;SDS011;48597;49.030;1.822;2023-04-03T00:49:43;2.08;;;1.95;;
62543;SDS011;48597;49.030;1.822;2023-04-03T00:52:15;2.05;;;1.85;;
62543;SDS011;48597;49.030;1.822;2023-04-03T00:54:42;2.15;;;1.95;;
62543;SDS011;48597;49.030;1.822;2023-04-03T00:57:11;1.80;;;1.70;;
62543;SDS011;48597;49.030;1.822;2023-04-03T00:59:41;2.08;;;1.90;;
62543;SDS011;48597;49.030;1.822;2023-04-03T01:02:09;2.03;;;1.90;;
62543;SDS011;48597;49.030;1.822;2023-04-03T01:07:06;1.88;;;1.77;;
62543;SDS011;48597;49.030;1.822;2023-04-03T01:09:40;1.90;;;1.73;;
62543;SDS011;48597;49.030;1.822;2023-04-03T01:14:48;2.05;;;1.85;;
62543;SDS011;48597;49.030;1.822;2023-04-03T01:17:35;2.00;;;1.80;;
62543;SDS011;48597;49.030;1.822;2023-04-03T01:22:53;1.75;;;1.65;;
62543;SDS011;48597;49.030;1.822;2023-04-03T01:25:33;2.30;;;2.05;;
62543;SDS011;48597;49.030;1.822;2023-04-03T01:28:03;1.98;;;1.88;;
62543;SDS011;48597;49.030;1.822;2023-04-03T01:30:31;2.00;;;1.80;;
62543;SDS011;48597;49.030;1.822;2023-04-03T01:32:59;1.80;;;1.67;;
62543;SDS011;48597;49.030;1.822;2023-04-03T01:35:24;2.10;;;2.00;;
62543;SDS011;48597;49.030;1.822;2023-04-03T01:37:50;1.85;;;1.75;;
62543;SDS011;48597;49.030;1.822;2023-04-03T01:40:15;1.77;;;1.67;;
62543;SDS011;48597;49.030;1.822;2023-04-03T01:42:41;1.77;;;1.67;;
62543;SDS011;48597;49.030;1.822;2023-04-03T01:45:07;1.92;;;1.83;;
62543;SDS011;48597;49.030;1.822;2023-04-03T01:47:32;1.65;;;1.50;;
62543;SDS011;48597;49.030;1.822;2023-04-03T01:49:58;1.50;;;1.40;;
62543;SDS011;48597;49.030;1.822;2023-04-03T01:52:23;1.38;;;1.27;;
62543;SDS011;48597;49.030;1.822;2023-04-03T01:54:49;1.50;;;1.40;;
62543;SDS011;48597;49.030;1.822;2023-04-03T01:57:15;1.60;;;1.50;;
62543;SDS011;48597;49.030;1.822;2023-04-03T01:59:41;1.58;;;1.48;;
62543;SDS011;48597;49.030;1.822;2023-04-03T02:02:07;1.60;;;1.50;;
62543;SDS011;48597;49.030;1.822;2023-04-03T02:04:33;1.70;;;1.60;;
62543;SDS011;48597;49.030;1.822;2023-04-03T02:06:58;1.90;;;1.48;;
62543;SDS011;48597;49.030;1.822;2023-04-03T02:09:23;1.92;;;1.58;;
62543;SDS011;48597;49.030;1.822;2023-04-03T02:11:49;1.50;;;1.40;;
62543;SDS011;48597;49.030;1.822;2023-04-03T02:14:14;1.40;;;1.30;;
62543;SDS011;48597;49.030;1.822;2023-04-03T02:16:40;1.48;;;1.38;;
62543;SDS011;48597;49.030;1.822;2023-04-03T02:19:05;1.48;;;1.38;;
62543;SDS011;48597;49.030;1.822;2023-04-03T02:21:31;1.30;;;1.20;;
62543;SDS011;48597;49.030;1.822;2023-04-03T02:23:56;1.42;;;1.33;;
62543;SDS011;48597;49.030;1.822;2023-04-03T02:26:22;1.50;;;1.40;;
62543;SDS011;48597;49.030;1.822;2023-04-03T02:28:47;1.40;;;1.30;;
62543;SDS011;48597;49.030;1.822;2023-04-03T02:31:13;1.30;;;1.20;;
62543;SDS011;48597;49.030;1.822;2023-04-03T02:33:38;1.48;;;1.38;;
62543;SDS011;48597;49.030;1.822;2023-04-03T02:36:04;1.98;;;1.40;;
62543;SDS011;48597;49.030;1.822;2023-04-03T02:38:31;1.50;;;1.40;;
62543;SDS011;48597;49.030;1.822;2023-04-03T02:41:00;1.40;;;1.30;;
62543;SDS011;48597;49.030;1.822;2023-04-03T02:43:27;1.30;;;1.20;;
62543;SDS011;48597;49.030;1.822;2023-04-03T02:45:52;1.40;;;1.30;;
62543;SDS011;48597;49.030;1.822;2023-04-03T02:48:18;1.35;;;1.25;;
62543;SDS011;48597;49.030;1.822;2023-04-03T02:50:43;1.40;;;1.30;;
62543;SDS011;48597;49.030;1.822;2023-04-03T02:53:08;1.33;;;1.15;;
62543;SDS011;48597;49.030;1.822;2023-04-03T02:55:34;1.25;;;1.15;;
62543;SDS011;48597;49.030;1.822;2023-04-03T02:57:59;1.40;;;1.30;;
62543;SDS011;48597;49.030;1.822;2023-04-03T03:00:25;1.40;;;1.30;;
62543;SDS011;48597;49.030;1.822;2023-04-03T03:02:50;1.20;;;1.10;;
62543;SDS011;48597;49.030;1.822;2023-04-03T03:05:16;1.30;;;1.20;;
62543;SDS011;48597;49.030;1.822;2023-04-03T03:07:41;1.20;;;1.10;;
62543;SDS011;48597;49.030;1.822;2023-04-03T03:10:06;1.40;;;1.30;;
62543;SDS011;48597;49.030;1.822;2023-04-03T03:12:32;1.20;;;1.10;;
62543;SDS011;48597;49.030;1.822;2023-04-03T03:14:57;1.38;;;1.27;;
62543;SDS011;48597;49.030;1.822;2023-04-03T03:17:23;1.08;;;1.05;;
62543;SDS011;48597;49.030;1.822;2023-04-03T03:19:48;1.08;;;1.00;;
62543;SDS011;48597;49.030;1.822;2023-04-03T03:22:13;1.20;;;1.08;;
62543;SDS011;48597;49.030;1.822;2023-04-03T03:24:39;1.10;;;1.00;;
62543;SDS011;48597;49.030;1.822;2023-04-03T03:27:04;1.30;;;1.20;;
62543;SDS011;48597;49.030;1.822;2023-04-03T03:29:30;1.30;;;1.20;;
62543;SDS011;48597;49.030;1.822;2023-04-03T03:31:55;1.20;;;1.10;;
62543;SDS011;48597;49.030;1.822;2023-04-03T03:34:21;1.20;;;1.10;;
62543;SDS011;48597;49.030;1.822;2023-04-03T03:36:46;1.20;;;1.10;;
62543;SDS011;48597;49.030;1.822;2023-04-03T03:39:12;1.08;;;1.05;;
62543;SDS011;48597;49.030;1.822;2023-04-03T03:41:37;1.02;;;1.02;;
62543;SDS011;48597;49.030;1.822;2023-04-03T03:44:02;1.27;;;1.17;;
62543;SDS011;48597;49.030;1.822;2023-04-03T03:46:28;1.08;;;1.08;;
62543;SDS011;48597;49.030;1.822;2023-04-03T03:48:53;1.30;;;1.20;;
62543;SDS011;48597;49.030;1.822;2023-04-03T03:51:19;0.98;;;0.98;;
62543;SDS011;48597;49.030;1.822;2023-04-03T03:53:44;1.10;;;1.00;;
62543;SDS011;48597;49.030;1.822;2023-04-03T03:56:10;1.17;;;1.00;;
62543;SDS011;48597;49.030;1.822;2023-04-03T03:58:36;1.23;;;1.15;;
62543;SDS011;48597;49.030;1.822;2023-04-03T04:01:05;0.80;;;0.80;;
62543;SDS011;48597;49.030;1.822;2023-04-03T04:03:31;1.60;;;1.10;;
62543;SDS011;48597;49.030;1.822;2023-04-03T04:05:57;2.05;;;1.00;;
62543;SDS011;48597;49.030;1.822;2023-04-03T04:08:22;1.20;;;1.10;;
62543;SDS011;48597;49.030;1.822;2023-04-03T04:10:48;1.13;;;1.08;;
62543;SDS011;48597;49.030;1.822;2023-04-03T04:13:13;1.08;;;1.00;;
62543;SDS011;48597;49.030;1.822;2023-04-03T04:15:39;1.20;;;1.10;;
62543;SDS011;48597;49.030;1.822;2023-04-03T04:18:05;1.00;;;1.00;;
62543;SDS011;48597;49.030;1.822;2023-04-03T04:20:30;1.23;;;1.13;;
62543;SDS011;48597;49.030;1.822;2023-04-03T04:22:56;0.90;;;0.90;;
62543;SDS011;48597;49.030;1.822;2023-04-03T04:25:21;1.05;;;1.00;;
62543;SDS011;48597;49.030;1.822;2023-04-03T04:27:47;1.10;;;1.00;;
62543;SDS011;48597;49.030;1.822;2023-04-03T04:30:12;1.05;;;0.90;;
62543;SDS011;48597;49.030;1.822;2023-04-03T04:32:38;1.00;;;1.00;;
62543;SDS011;48597;49.030;1.822;2023-04-03T04:35:04;0.95;;;0.95;;
62543;SDS011;48597;49.030;1.822;2023-04-03T04:37:29;1.20;;;1.10;;
62543;SDS011;48597;49.030;1.822;2023-04-03T04:39:55;1.10;;;1.00;;
62543;SDS011;48597;49.030;1.822;2023-04-03T04:42:20;1.05;;;1.00;;
62543;SDS011;48597;49.030;1.822;2023-04-03T04:44:46;1.00;;;1.00;;
62543;SDS011;48597;49.030;1.822;2023-04-03T04:47:11;0.88;;;0.88;;
62543;SDS011;48597;49.030;1.822;2023-04-03T04:49:37;0.95;;;0.90;;
62543;SDS011;48597;49.030;1.822;2023-04-03T04:52:03;0.90;;;0.90;;
62543;SDS011;48597;49.030;1.822;2023-04-03T04:54:29;1.08;;;1.00;;
62543;SDS011;48597;49.030;1.822;2023-04-03T04:56:54;1.00;;;1.00;;
62543;SDS011;48597;49.030;1.822;2023-04-03T04:59:20;0.88;;;0.88;;
62543;SDS011;48597;49.030;1.822;2023-04-03T05:01:45;0.93;;;0.93;;
62543;SDS011;48597;49.030;1.822;2023-04-03T05:04:11;1.08;;;0.98;;
62543;SDS011;48597;49.030;1.822;2023-04-03T05:06:37;1.17;;;1.00;;
62543;SDS011;48597;49.030;1.822;2023-04-03T05:09:03;1.75;;;1.17;;
62543;SDS011;48597;49.030;1.822;2023-04-03T05:11:28;1.10;;;0.98;;
62543;SDS011;48597;49.030;1.822;2023-04-03T05:13:53;1.40;;;1.10;;
62543;SDS011;48597;49.030;1.822;2023-04-03T05:16:19;1.10;;;1.00;;
62543;SDS011;48597;49.030;1.822;2023-04-03T05:18:44;1.20;;;1.10;;
62543;SDS011;48597;49.030;1.822;2023-04-03T05:21:10;1.25;;;1.10;;
62543;SDS011;48597;49.030;1.822;2023-04-03T05:23:35;1.60;;;1.10;;
62543;SDS011;48597;49.030;1.822;2023-04-03T05:26:01;1.02;;;1.00;;
62543;SDS011;48597;49.030;1.822;2023-04-03T05:28:26;1.00;;;1.00;;
62543;SDS011;48597;49.030;1.822;2023-04-03T05:30:55;3.75;;;1.13;;
62543;SDS011;48597;49.030;1.822;2023-04-03T05:33:21;1.17;;;1.00;;
62543;SDS011;48597;49.030;1.822;2023-04-03T05:35:47;1.08;;;1.00;;
62543;SDS011;48597;49.030;1.822;2023-04-03T05:38:13;1.13;;;1.02;;
62543;SDS011;48597;49.030;1.822;2023-04-03T05:40:38;1.58;;;1.15;;
62543;SDS011;48597;49.030;1.822;2023-04-03T05:43:04;1.02;;;1.00;;
62543;SDS011;48597;49.030;1.822;2023-04-03T05:45:29;1.10;;;1.00;;
62543;SDS011;48597;49.030;1.822;2023-04-03T05:47:55;0.98;;;0.98;;
62543;SDS011;48597;49.030;1.822;2023-04-03T05:50:22;1.17;;;1.02;;
62543;SDS011;48597;49.030;1.822;2023-04-03T05:52:48;1.85;;;1.15;;
62543;SDS011;48597;49.030;1.822;2023-04-03T05:55:15;1.60;;;1.17;;
62543;SDS011;48597;49.030;1.822;2023-04-03T05:57:41;1.38;;;0.95;;
62543;SDS011;48597;49.030;1.822;2023-04-03T06:00:08;1.20;;;1.10;;
62543;SDS011;48597;49.030;1.822;2023-04-03T06:02:37;1.00;;;1.00;;
62543;SDS011;48597;49.030;1.822;2023-04-03T06:05:03;1.33;;;1.15;;
62543;SDS011;48597;49.030;1.822;2023-04-03T06:07:28;2.30;;;1.05;;
62543;SDS011;48597;49.030;1.822;2023-04-03T06:09:55;1.20;;;1.10;;
62543;SDS011;48597;49.030;1.822;2023-04-03T06:12:21;1.27;;;1.17;;
62543;SDS011;48597;49.030;1.822;2023-04-03T06:14:47;1.30;;;1.20;;
62543;SDS011;48597;49.030;1.822;2023-04-03T06:17:13;1.20;;;1.10;;
62543;SDS011;48597;49.030;1.822;2023-04-03T06:19:43;1.30;;;1.15;;
62543;SDS011;48597;49.030;1.822;2023-04-03T06:22:09;1.25;;;1.15;;
62543;SDS011;48597;49.030;1.822;2023-04-03T06:24:36;1.23;;;1.10;;
62543;SDS011;48597;49.030;1.822;2023-04-03T06:27:02;1.13;;;1.02;;
62543;SDS011;48597;49.030;1.822;2023-04-03T06:29:28;1.77;;;1.10;;
62543;SDS011;48597;49.030;1.822;2023-04-03T06:31:53;1.15;;;1.10;;
62543;SDS011;48597;49.030;1.822;2023-04-03T06:34:18;1.08;;;0.90;;
62543;SDS011;48597;49.030;1.822;2023-04-03T06:36:45;3.60;;;1.33;;
62543;SDS011;48597;49.030;1.822;2023-04-03T06:39:15;1.23;;;1.13;;
62543;SDS011;48597;49.030;1.822;2023-04-03T06:41:42;1.15;;;1.05;;
62543;SDS011;48597;49.030;1.822;2023-04-03T06:44:09;1.05;;;1.00;;
62543;SDS011;48597;49.030;1.822;2023-04-03T06:46:36;1.15;;;1.05;;
62543;SDS011;48597;49.030;1.822;2023-04-03T06:49:03;1.15;;;1.10;;
62543;SDS011;48597;49.030;1.822;2023-04-03T06:51:29;1.73;;;1.30;;
62543;SDS011;48597;49.030;1.822;2023-04-03T06:53:56;1.70;;;1.40;;
62543;SDS011;48597;49.030;1.822;2023-04-03T06:56:23;1.33;;;1.23;;
62543;SDS011;48597;49.030;1.822;2023-04-03T06:58:50;1.10;;;1.10;;
62543;SDS011;48597;49.030;1.822;2023-04-03T07:01:16;2.50;;;1.15;;
62543;SDS011;48597;49.030;1.822;2023-04-03T07:03:44;1.45;;;1.00;;
62543;SDS011;48597;49.030;1.822;2023-04-03T07:06:11;1.40;;;1.02;;
62543;SDS011;48597;49.030;1.822;2023-04-03T07:08:39;1.77;;;1.20;;
62543;SDS011;48597;49.030;1.822;2023-04-03T07:11:05;1.40;;;1.15;;
62543;SDS011;48597;49.030;1.822;2023-04-03T07:13:31;2.42;;;1.10;;
62543;SDS011;48597;49.030;1.822;2023-04-03T07:15:57;1.73;;;1.13;;
62543;SDS011;48597;49.030;1.822;2023-04-03T07:18:23;3.75;;;1.48;;
62543;SDS011;48597;49.030;1.822;2023-04-03T07:20:48;2.35;;;1.40;;
62543;SDS011;48597;49.030;1.822;2023-04-03T07:23:14;3.35;;;1.50;;
62543;SDS011;48597;49.030;1.822;2023-04-03T07:25:46;5.65;;;1.45;;
62543;SDS011;48597;49.030;1.822;2023-04-03T07:28:14;3.70;;;1.50;;
62543;SDS011;48597;49.030;1.822;2023-04-03T07:30:44;6.20;;;1.42;;
62543;SDS011;48597;49.030;1.822;2023-04-03T07:33:11;4.93;;;1.47;;
62543;SDS011;48597;49.030;1.822;2023-04-03T07:35:38;2.00;;;1.30;;
62543;SDS011;48597;49.030;1.822;2023-04-03T07:38:03;3.22;;;1.30;;
62543;SDS011;48597;49.030;1.822;2023-04-03T07:40:29;4.95;;;1.90;;
62543;SDS011;48597;49.030;1.822;2023-04-03T07:42:55;3.97;;;1.63;;
62543;SDS011;48597;49.030;1.822;2023-04-03T07:45:22;1.30;;;1.20;;
62543;SDS011;48597;49.030;1.822;2023-04-03T07:47:47;2.83;;;1.58;;
62543;SDS011;48597;49.030;1.822;2023-04-03T07:50:13;1.60;;;1.40;;
62543;SDS011;48597;49.030;1.822;2023-04-03T07:52:39;3.58;;;1.30;;
62543;SDS011;48597;49.030;1.822;2023-04-03T07:55:05;1.55;;;1.30;;
62543;SDS011;48597;49.030;1.822;2023-04-03T07:57:31;2.20;;;1.52;;
62543;SDS011;48597;49.030;1.822;2023-04-03T07:59:56;2.83;;;1.20;;
62543;SDS011;48597;49.030;1.822;2023-04-03T08:02:22;1.92;;;1.38;;
62543;SDS011;48597;49.030;1.822;2023-04-03T08:04:47;2.20;;;1.30;;
62543;SDS011;48597;49.030;1.822;2023-04-03T08:07:12;1.30;;;1.20;;
62543;SDS011;48597;49.030;1.822;2023-04-03T08:09:38;1.50;;;1.30;;
62543;SDS011;48597;49.030;1.822;2023-04-03T08:12:03;1.50;;;1.40;;
62543;SDS011;48597;49.030;1.822;2023-04-03T08:14:30;2.28;;;1.30;;
62543;SDS011;48597;49.030;1.822;2023-04-03T08:17:01;1.60;;;1.20;;
62543;SDS011;48597;49.030;1.822;2023-04-03T08:19:29;1.50;;;1.40;;
62543;SDS011;48597;49.030;1.822;2023-04-03T08:21:54;1.52;;;1.42;;
62543;SDS011;48597;49.030;1.822;2023-04-03T08:24:20;1.95;;;1.35;;
62543;SDS011;48597;49.030;1.822;2023-04-03T08:26:45;2.22;;;1.48;;
62543;SDS011;48597;49.030;1.822;2023-04-03T08:29:11;3.03;;;1.10;;
62543;SDS011;48597;49.030;1.822;2023-04-03T08:31:36;1.30;;;1.20;;
62543;SDS011;48597;49.030;1.822;2023-04-03T08:34:02;2.45;;;1.42;;
62543;SDS011;48597;49.030;1.822;2023-04-03T08:36:27;2.33;;;1.25;;
62543;SDS011;48597;49.030;1.822;2023-04-03T08:38:54;3.67;;;1.40;;
62543;SDS011;48597;49.030;1.822;2023-04-03T08:44:05;2.10;;;1.52;;
62543;SDS011;48597;49.030;1.822;2023-04-03T08:49:28;2.00;;;1.30;;
62543;SDS011;48597;49.030;1.822;2023-04-03T08:51:56;1.20;;;1.10;;
62543;SDS011;48597;49.030;1.822;2023-04-03T08:54:27;2.10;;;1.20;;
62543;SDS011;48597;49.030;1.822;2023-04-03T08:59:26;2.45;;;1.30;;
62543;SDS011;48597;49.030;1.822;2023-04-03T09:01:55;2.10;;;1.30;;
62543;SDS011;48597;49.030;1.822;2023-04-03T09:04:23;1.60;;;1.10;;
62543;SDS011;48597;49.030;1.822;2023-04-03T09:06:55;3.00;;;1.20;;
62543;SDS011;48597;49.030;1.822;2023-04-03T09:09:32;1.25;;;1.10;;
62543;SDS011;48597;49.030;1.822;2023-04-03T09:14:38;1.23;;;1.00;;
62543;SDS011;48597;49.030;1.822;2023-04-03T09:20:22;1.33;;;1.17;;
62543;SDS011;48597;49.030;1.822;2023-04-03T09:22:49;1.33;;;1.23;;
62543;SDS011;48597;49.030;1.822;2023-04-03T09:25:17;1.98;;;1.50;;
62543;SDS011;48597;49.030;1.822;2023-04-03T09:27:55;1.25;;;1.20;;
62543;SDS011;48597;49.030;1.822;2023-04-03T09:30:22;2.38;;;1.20;;
62543;SDS011;48597;49.030;1.822;2023-04-03T09:32:50;1.75;;;1.27;;
62543;SDS011;48597;49.030;1.822;2023-04-03T09:37:54;2.42;;;1.23;;
62543;SDS011;48597;49.030;1.822;2023-04-03T09:42:50;1.30;;;1.20;;
62543;SDS011;48597;49.030;1.822;2023-04-03T09:45:24;1.98;;;1.00;;
62543;SDS011;48597;49.030;1.822;2023-04-03T09:47:57;3.85;;;1.20;;
62543;SDS011;48597;49.030;1.822;2023-04-03T09:50:39;1.20;;;1.10;;
62543;SDS011;48597;49.030;1.822;2023-04-03T09:58:40;3.22;;;1.00;;
62543;SDS011;48597;49.030;1.822;2023-04-03T10:01:20;1.50;;;1.23;;
62543;SDS011;48597;49.030;1.822;2023-04-03T10:04:02;2.42;;;1.20;;
62543;SDS011;48597;49.030;1.822;2023-04-03T10:06:34;1.88;;;1.20;;
62543;SDS011;48597;49.030;1.822;2023-04-03T10:09:03;1.40;;;1.20;;
62543;SDS011;48597;49.030;1.822;2023-04-03T10:12:00;1.30;;;1.00;;
62543;SDS011;48597;49.030;1.822;2023-04-03T10:14:30;1.15;;;1.05;;
62543;SDS011;48597;49.030;1.822;2023-04-03T10:20:32;1.20;;;1.10;;
62543;SDS011;48597;49.030;1.822;2023-04-03T10:29:10;1.10;;;1.00;;
62543;SDS011;48597;49.030;1.822;2023-04-03T10:31:49;2.50;;;1.17;;
62543;SDS011;48597;49.030;1.822;2023-04-03T10:34:31;0.80;;;0.80;;
62543;SDS011;48597;49.030;1.822;2023-04-03T10:39:56;1.05;;;0.90;;
62543;SDS011;48597;49.030;1.822;2023-04-03T10:50:57;1.08;;;0.98;;
62543;SDS011;48597;49.030;1.822;2023-04-03T10:58:53;1.10;;;1.00;;
62543;SDS011;48597;49.030;1.822;2023-04-03T11:01:21;1.00;;;0.90;;
62543;SDS011;48597;49.030;1.822;2023-04-03T11:03:56;1.27;;;0.98;;
62543;SDS011;48597;49.030;1.822;2023-04-03T11:06:23;1.05;;;0.98;;
62543;SDS011;48597;49.030;1.822;2023-04-03T11:08:59;1.10;;;1.10;;
62543;SDS011;48597;49.030;1.822;2023-04-03T11:11:35;1.13;;;1.00;;
62543;SDS011;48597;49.030;1.822;2023-04-03T11:25:37;1.05;;;1.00;;
62543;SDS011;48597;49.030;1.822;2023-04-03T11:28:09;1.10;;;1.00;;
62543;SDS011;48597;49.030;1.822;2023-04-03T11:36:24;1.08;;;0.90;;
62543;SDS011;48597;49.030;1.822;2023-04-03T11:38:53;1.58;;;1.02;;
62543;SDS011;48597;49.030;1.822;2023-04-03T11:41:31;1.00;;;0.90;;
62543;SDS011;48597;49.030;1.822;2023-04-03T11:44:25;1.75;;;1.40;;
62543;SDS011;48597;49.030;1.822;2023-04-03T11:46:56;1.60;;;1.13;;
62543;SDS011;48597;49.030;1.822;2023-04-03T12:22:04;1.25;;;1.10;;
62543;SDS011;48597;49.030;1.822;2023-04-03T12:42:41;1.73;;;0.95;;
62543;SDS011;48597;49.030;1.822;2023-04-03T12:45:29;1.52;;;0.80;;
62543;SDS011;48597;49.030;1.822;2023-04-03T12:48:12;0.80;;;0.80;;
62543;SDS011;48597;49.030;1.822;2023-04-03T12:50:40;1.20;;;0.90;;
62543;SDS011;48597;49.030;1.822;2023-04-03T12:53:12;1.00;;;0.90;;
62543;SDS011;48597;49.030;1.822;2023-04-03T12:55:44;1.60;;;0.88;;
62543;SDS011;48597;49.030;1.822;2023-04-03T12:58:17;1.05;;;0.80;;
62543;SDS011;48597;49.030;1.822;2023-04-03T13:00:58;0.90;;;0.80;;
62543;SDS011;48597;49.030;1.822;2023-04-03T13:03:38;0.70;;;0.70;;
62543;SDS011;48597;49.030;1.822;2023-04-03T13:06:05;0.98;;;0.75;;
62543;SDS011;48597;49.030;1.822;2023-04-03T13:08:31;1.75;;;0.90;;
62543;SDS011;48597;49.030;1.822;2023-04-03T13:13:35;1.10;;;1.00;;
62543;SDS011;48597;49.030;1.822;2023-04-03T13:16:09;0.73;;;0.73;;
62543;SDS011;48597;49.030;1.822;2023-04-03T13:18:36;1.05;;;0.85;;
62543;SDS011;48597;49.030;1.822;2023-04-03T13:21:07;0.98;;;0.90;;
62543;SDS011;48597;49.030;1.822;2023-04-03T13:23:39;0.70;;;0.70;;
62543;SDS011;48597;49.030;1.822;2023-04-03T13:26:08;0.90;;;0.70;;
62543;SDS011;48597;49.030;1.822;2023-04-03T13:28:34;0.98;;;0.85;;
62543;SDS011;48597;49.030;1.822;2023-04-03T13:33:52;0.70;;;0.70;;
62543;SDS011;48597;49.030;1.822;2023-04-03T13:41:39;0.90;;;0.70;;
62543;SDS011;48597;49.030;1.822;2023-04-03T13:46:40;0.80;;;0.80;;
62543;SDS011;48597;49.030;1.822;2023-04-03T13:49:17;1.83;;;0.82;;
62543;SDS011;48597;49.030;1.822;2023-04-03T13:51:51;1.40;;;0.80;;
62543;SDS011;48597;49.030;1.822;2023-04-03T13:54:38;0.80;;;0.80;;
62543;SDS011;48597;49.030;1.822;2023-04-03T13:57:11;0.95;;;0.80;;
62543;SDS011;48597;49.030;1.822;2023-04-03T13:59:38;0.93;;;0.80;;
62543;SDS011;48597;49.030;1.822;2023-04-03T14:04:31;0.80;;;0.80;;
62543;SDS011;48597;49.030;1.822;2023-04-03T14:07:08;1.20;;;0.80;;
62543;SDS011;48597;49.030;1.822;2023-04-03T14:09:34;1.10;;;0.80;;
62543;SDS011;48597;49.030;1.822;2023-04-03T14:12:02;0.70;;;0.70;;
62543;SDS011;48597;49.030;1.822;2023-04-03T14:14:34;1.02;;;0.80;;
62543;SDS011;48597;49.030;1.822;2023-04-03T14:17:03;0.63;;;0.63;;
62543;SDS011;48597;49.030;1.822;2023-04-03T14:19:39;0.80;;;0.70;;
62543;SDS011;48597;49.030;1.822;2023-04-03T14:22:16;1.17;;;0.85;;
62543;SDS011;48597;49.030;1.822;2023-04-03T14:24:47;0.98;;;0.77;;
62543;SDS011;48597;49.030;1.822;2023-04-03T14:27:15;0.80;;;0.80;;
62543;SDS011;48597;49.030;1.822;2023-04-03T14:29:46;0.77;;;0.77;;
62543;SDS011;48597;49.030;1.822;2023-04-03T14:32:13;0.88;;;0.88;;
62543;SDS011;48597;49.030;1.822;2023-04-03T14:34:41;0.70;;;0.70;;
62543;SDS011;48597;49.030;1.822;2023-04-03T14:37:12;0.93;;;0.70;;
62543;SDS011;48597;49.030;1.822;2023-04-03T14:39:39;0.68;;;0.68;;
62543;SDS011;48597;49.030;1.822;2023-04-03T14:42:05;0.90;;;0.90;;
62543;SDS011;48597;49.030;1.822;2023-04-03T14:44:32;1.17;;;0.75;;
62543;SDS011;48597;49.030;1.822;2023-04-03T14:46:57;2.25;;;0.90;;
62543;SDS011;48597;49.030;1.822;2023-04-03T14:49:26;1.05;;;0.77;;
62543;SDS011;48597;49.030;1.822;2023-04-03T14:51:53;0.80;;;0.80;;
62543;SDS011;48597;49.030;1.822;2023-04-03T14:54:20;0.68;;;0.68;;
62543;SDS011;48597;49.030;1.822;2023-04-03T14:56:50;0.80;;;0.80;;
62543;SDS011;48597;49.030;1.822;2023-04-03T14:59:16;1.83;;;0.90;;
62543;SDS011;48597;49.030;1.822;2023-04-03T15:01:42;1.23;;;0.70;;
62543;SDS011;48597;49.030;1.822;2023-04-03T15:04:15;0.60;;;0.60;;
62543;SDS011;48597;49.030;1.822;2023-04-03T15:06:42;0.70;;;0.70;;
62543;SDS011;48597;49.030;1.822;2023-04-03T15:09:19;0.80;;;0.80;;
62543;SDS011;48597;49.030;1.822;2023-04-03T15:11:45;0.88;;;0.80;;
62543;SDS011;48597;49.030;1.822;2023-04-03T15:14:11;1.10;;;0.70;;
62543;SDS011;48597;49.030;1.822;2023-04-03T15:16:36;0.77;;;0.77;;
62543;SDS011;48597;49.030;1.822;2023-04-03T15:19:02;1.77;;;0.93;;
62543;SDS011;48597;49.030;1.822;2023-04-03T15:21:27;0.70;;;0.70;;
62543;SDS011;48597;49.030;1.822;2023-04-03T15:23:53;0.77;;;0.77;;
62543;SDS011;48597;49.030;1.822;2023-04-03T15:26:18;0.95;;;0.90;;
62543;SDS011;48597;49.030;1.822;2023-04-03T15:28:44;1.33;;;0.93;;
62543;SDS011;48597;49.030;1.822;2023-04-03T15:31:10;1.45;;;0.90;;
62543;SDS011;48597;49.030;1.822;2023-04-03T15:33:36;1.00;;;0.90;;
62543;SDS011;48597;49.030;1.822;2023-04-03T15:36:02;1.08;;;0.80;;
62543;SDS011;48597;49.030;1.822;2023-04-03T15:38:28;1.50;;;1.17;;
62543;SDS011;48597;49.030;1.822;2023-04-03T15:40:54;1.10;;;0.70;;
62543;SDS011;48597;49.030;1.822;2023-04-03T15:43:20;2.22;;;0.90;;
62543;SDS011;48597;49.030;1.822;2023-04-03T15:45:46;1.88;;;0.90;;
62543;SDS011;48597;49.030;1.822;2023-04-03T15:48:11;1.10;;;0.70;;
62543;SDS011;48597;49.030;1.822;2023-04-03T15:50:37;1.80;;;0.90;;
62543;SDS011;48597;49.030;1.822;2023-04-03T15:53:03;0.80;;;0.80;;
62543;SDS011;48597;49.030;1.822;2023-04-03T15:55:30;1.08;;;0.80;;
62543;SDS011;48597;49.030;1.822;2023-04-03T15:57:59;0.80;;;0.80;;
62543;SDS011;48597;49.030;1.822;2023-04-03T16:00:25;1.13;;;0.93;;
62543;SDS011;48597;49.030;1.822;2023-04-03T16:02:52;0.75;;;0.70;;
62543;SDS011;48597;49.030;1.822;2023-04-03T16:05:20;0.73;;;0.73;;
62543;SDS011;48597;49.030;1.822;2023-04-03T16:07:46;1.30;;;0.77;;
62543;SDS011;48597;49.030;1.822;2023-04-03T16:10:12;0.90;;;0.90;;
62543;SDS011;48597;49.030;1.822;2023-04-03T16:12:40;1.23;;;0.90;;
62543;SDS011;48597;49.030;1.822;2023-04-03T16:15:06;1.83;;;0.90;;
62543;SDS011;48597;49.030;1.822;2023-04-03T16:17:32;1.55;;;1.00;;
62543;SDS011;48597;49.030;1.822;2023-04-03T16:19:58;1.17;;;0.73;;
62543;SDS011;48597;49.030;1.822;2023-04-03T16:22:25;1.75;;;0.88;;
62543;SDS011;48597;49.030;1.822;2023-04-03T16:24:52;1.73;;;0.80;;
62543;SDS011;48597;49.030;1.822;2023-04-03T16:27:18;0.80;;;0.80;;
62543;SDS011;48597;49.030;1.822;2023-04-03T16:29:44;0.98;;;0.80;;
62543;SDS011;48597;49.030;1.822;2023-04-03T16:32:09;1.20;;;0.70;;
62543;SDS011;48597;49.030;1.822;2023-04-03T16:34:36;0.88;;;0.70;;
62543;SDS011;48597;49.030;1.822;2023-04-03T16:37:01;1.38;;;0.95;;
62543;SDS011;48597;49.030;1.822;2023-04-03T16:39:27;2.30;;;1.00;;
62543;SDS011;48597;49.030;1.822;2023-04-03T16:41:52;0.80;;;0.80;;
62543;SDS011;48597;49.030;1.822;2023-04-03T16:44:17;0.82;;;0.80;;
62543;SDS011;48597;49.030;1.822;2023-04-03T16:46:43;0.85;;;0.70;;
62543;SDS011;48597;49.030;1.822;2023-04-03T16:49:08;1.20;;;0.80;;
62543;SDS011;48597;49.030;1.822;2023-04-03T16:51:34;1.20;;;1.00;;
62543;SDS011;48597;49.030;1.822;2023-04-03T16:53:59;1.13;;;1.00;;
62543;SDS011;48597;49.030;1.822;2023-04-03T16:56:25;1.83;;;1.13;;
62543;SDS011;48597;49.030;1.822;2023-04-03T16:58:53;1.13;;;0.93;;
62543;SDS011;48597;49.030;1.822;2023-04-03T17:01:20;0.90;;;0.85;;
62543;SDS011;48597;49.030;1.822;2023-04-03T17:03:47;1.00;;;0.90;;
62543;SDS011;48597;49.030;1.822;2023-04-03T17:06:14;1.83;;;1.02;;
62543;SDS011;48597;49.030;1.822;2023-04-03T17:08:42;1.42;;;0.93;;
62543;SDS011;48597;49.030;1.822;2023-04-03T17:11:09;1.98;;;0.98;;
62543;SDS011;48597;49.030;1.822;2023-04-03T17:13:35;2.25;;;1.10;;
62543;SDS011;48597;49.030;1.822;2023-04-03T17:16:01;1.30;;;0.85;;